createdAt,value
2023-01-20T00:01:16.035Z,18.60
2023-01-20T00:03:46.079Z,22.27
2023-01-20T00:06:15.294Z,22.55
2023-01-20T00:08:43.741Z,22.20
2023-01-20T00:11:14.380Z,21.98
2023-01-20T00:13:42.689Z,17.83
2023-01-20T00:16:12.135Z,21.15
2023-01-20T00:18:41.509Z,19.52
2023-01-20T00:21:11.582Z,19.02
2023-01-20T00:23:40.661Z,21.38
2023-01-20T00:26:13.814Z,20.25
2023-01-20T00:28:44.743Z,19.67
2023-01-20T00:31:15.408Z,16.85
2023-01-20T00:33:44.189Z,17.08
2023-01-20T00:36:15.539Z,19.00
2023-01-20T00:38:43.930Z,15.18
2023-01-20T00:41:12.824Z,17.85
2023-01-20T00:43:42.587Z,17.13
2023-01-20T00:46:11.245Z,14.27
2023-01-20T00:48:40.490Z,14.00
2023-01-20T00:51:10.233Z,16.80
2023-01-20T00:53:38.689Z,17.80
2023-01-20T00:56:08.085Z,18.85
2023-01-20T00:58:36.385Z,15.05
2023-01-20T01:01:06.564Z,18.98
2023-01-20T01:03:36.072Z,17.00
2023-01-20T01:06:09.624Z,12.88
2023-01-20T01:08:37.955Z,18.17
2023-01-20T01:11:07.400Z,17.52
2023-01-20T01:13:36.213Z,16.67
2023-01-20T01:16:06.593Z,19.48
2023-01-20T01:18:34.929Z,14.60
2023-01-20T01:21:08.388Z,20.60
2023-01-20T01:23:36.724Z,14.90
2023-01-20T01:26:05.614Z,21.25
2023-01-20T01:28:34.012Z,19.63
2023-01-20T01:31:03.103Z,17.08
2023-01-20T01:33:33.106Z,16.52
2023-01-20T01:36:03.249Z,22.67
2023-01-20T01:38:31.537Z,21.65
2023-01-20T01:41:00.146Z,17.70
2023-01-20T01:43:30.184Z,21.55
2023-01-20T01:45:58.481Z,21.63
2023-01-20T01:48:31.582Z,19.10
2023-01-20T01:51:04.538Z,23.85
2023-01-20T01:53:38.560Z,21.35
2023-01-20T01:56:07.450Z,25.08
2023-01-20T01:58:37.891Z,21.45
2023-01-20T02:01:06.568Z,20.77
2023-01-20T02:03:44.060Z,24.17
2023-01-20T02:06:15.224Z,23.25
2023-01-20T02:08:44.185Z,20.33
2023-01-20T02:11:12.735Z,19.52
2023-01-20T02:13:41.272Z,22.73
2023-01-20T02:16:19.222Z,16.90
2023-01-20T02:19:02.857Z,17.42
2023-01-20T02:22:07.045Z,22.33
2023-01-20T02:25:18.161Z,23.15
2023-01-20T02:28:22.450Z,17.95
2023-01-20T02:31:08.594Z,18.92
2023-01-20T02:33:43.193Z,17.90
2023-01-20T02:36:16.534Z,17.20
2023-01-20T02:38:50.324Z,21.77
2023-01-20T02:41:22.959Z,16.17
2023-01-20T02:43:57.762Z,20.15
2023-01-20T02:46:33.231Z,18.05
2023-01-20T02:51:44.117Z,19.30
2023-01-20T02:54:15.182Z,21.10
2023-01-20T02:56:44.391Z,20.60
2023-01-20T02:59:15.538Z,21.60
2023-01-20T03:01:49.483Z,20.75
2023-01-20T03:04:23.834Z,18.35
2023-01-20T03:06:56.386Z,18.13
2023-01-20T03:09:31.149Z,20.27
2023-01-20T03:12:03.154Z,22.83
2023-01-20T03:14:31.739Z,22.13
2023-01-20T03:17:00.035Z,21.13
2023-01-20T03:19:30.080Z,20.92
2023-01-20T03:21:58.776Z,21.50
2023-01-20T03:24:30.781Z,19.52
2023-01-20T03:27:00.111Z,21.08
2023-01-20T03:29:30.239Z,19.23
2023-01-20T03:32:01.146Z,19.55
2023-01-20T03:34:36.285Z,21.50
2023-01-20T03:37:07.845Z,21.95
2023-01-20T03:39:39.777Z,21.13
2023-01-20T03:42:11.631Z,19.80
2023-01-20T03:44:53.504Z,22.67
2023-01-20T03:47:32.069Z,24.30
2023-01-20T03:50:10.359Z,22.13
2023-01-20T03:52:47.078Z,26.33
2023-01-20T03:55:21.881Z,21.10
2023-01-20T03:57:55.670Z,21.80
2023-01-20T04:00:27.125Z,23.42
2023-01-20T04:03:00.282Z,23.05
2023-01-20T04:05:31.336Z,26.13
2023-01-20T04:08:03.274Z,22.95
2023-01-20T04:10:34.091Z,21.85
2023-01-20T04:13:02.662Z,22.20
2023-01-20T04:15:35.760Z,20.42
2023-01-20T04:18:18.259Z,20.10
2023-01-20T04:20:50.943Z,20.63
2023-01-20T04:23:25.770Z,22.02
2023-01-20T04:25:56.180Z,16.80
2023-01-20T04:28:24.473Z,20.50
2023-01-20T04:30:53.049Z,18.08
2023-01-20T04:33:21.656Z,18.92
2023-01-20T04:35:51.328Z,18.30
2023-01-20T04:38:20.065Z,16.67
2023-01-20T04:40:48.375Z,17.75
2023-01-20T04:43:16.948Z,17.73
2023-01-20T04:45:45.567Z,16.27
2023-01-20T04:48:13.851Z,16.17
2023-01-20T04:50:42.869Z,18.75
2023-01-20T04:53:17.046Z,15.73
2023-01-20T04:55:45.388Z,18.13
2023-01-20T04:58:13.696Z,20.13
2023-01-20T05:00:43.655Z,18.58
2023-01-20T05:03:11.987Z,18.40
2023-01-20T05:05:40.265Z,16.45
2023-01-20T05:08:08.885Z,17.83
2023-01-20T05:10:38.523Z,17.52
2023-01-20T05:13:06.963Z,19.58
2023-01-20T05:15:35.249Z,14.13
2023-01-20T05:18:03.609Z,17.85
2023-01-20T05:20:31.910Z,16.02
2023-01-20T05:23:01.426Z,19.13
2023-01-20T05:25:29.806Z,17.95
2023-01-20T05:28:00.142Z,19.00
2023-01-20T05:30:28.831Z,17.52
2023-01-20T05:32:57.145Z,15.75
2023-01-20T05:35:25.428Z,15.23
2023-01-20T05:37:55.133Z,18.52
2023-01-20T05:40:23.655Z,19.35
2023-01-20T05:42:51.936Z,19.35
2023-01-20T05:45:21.540Z,19.60
2023-01-20T05:47:49.773Z,17.83
2023-01-20T05:50:18.276Z,19.92
2023-01-20T05:52:49.311Z,20.80
2023-01-20T05:55:17.778Z,19.20
2023-01-20T05:57:46.094Z,16.88
2023-01-20T06:00:15.316Z,16.70
2023-01-20T06:02:44.860Z,18.50
2023-01-20T06:05:13.375Z,18.73
2023-01-20T06:07:42.034Z,15.52
2023-01-20T06:10:11.849Z,19.63
2023-01-20T06:12:40.100Z,17.13
2023-01-20T06:15:09.451Z,22.13
2023-01-20T06:17:38.079Z,21.40
2023-01-20T06:20:08.495Z,19.65
2023-01-20T06:22:36.854Z,20.65
2023-01-20T06:25:05.538Z,22.13
2023-01-20T06:27:33.819Z,23.17
2023-01-20T06:30:02.015Z,19.77
2023-01-20T06:32:30.668Z,21.45
2023-01-20T06:34:58.939Z,20.95
2023-01-20T06:37:28.630Z,20.75
2023-01-20T06:39:56.840Z,20.75
2023-01-20T06:42:25.120Z,18.23
2023-01-20T06:44:53.277Z,19.13
2023-01-20T06:47:21.453Z,17.30
2023-01-20T06:49:49.683Z,20.40
2023-01-20T06:52:18.098Z,17.55
2023-01-20T06:54:47.787Z,20.13
2023-01-20T06:57:16.088Z,17.05
2023-01-20T06:59:44.334Z,19.88
2023-01-20T07:02:13.997Z,18.20
2023-01-20T07:04:42.700Z,14.55
2023-01-20T07:07:14.098Z,18.35
2023-01-20T07:09:42.550Z,18.63
2023-01-20T07:12:12.209Z,17.30
2023-01-20T07:14:40.533Z,19.65
2023-01-20T07:17:13.064Z,16.27
2023-01-20T07:19:41.586Z,17.30
2023-01-20T07:22:09.782Z,20.10
2023-01-20T07:24:38.269Z,16.42
2023-01-20T07:27:06.948Z,15.63
2023-01-20T07:29:38.462Z,16.48
2023-01-20T07:32:06.971Z,16.30
2023-01-20T07:34:35.574Z,18.15
2023-01-20T07:37:04.159Z,15.70
2023-01-20T07:39:32.413Z,17.05
2023-01-20T07:42:00.696Z,17.55
2023-01-20T07:44:28.907Z,17.45
2023-01-20T07:46:59.076Z,15.55
2023-01-20T07:49:28.109Z,17.80
2023-01-20T07:51:56.418Z,16.17
2023-01-20T07:54:24.793Z,14.48
2023-01-20T07:56:53.083Z,17.95
2023-01-20T07:59:21.370Z,15.82
2023-01-20T08:01:49.769Z,17.27
2023-01-20T08:04:19.531Z,20.40
2023-01-20T08:06:48.193Z,18.02
2023-01-20T08:09:16.463Z,17.05
2023-01-20T08:11:44.788Z,19.35
2023-01-20T08:14:13.464Z,20.15
2023-01-20T08:16:41.816Z,18.42
2023-01-20T08:19:10.295Z,18.65
2023-01-20T08:21:39.904Z,17.95
2023-01-20T08:24:08.465Z,18.95
2023-01-20T08:26:36.730Z,17.17
2023-01-20T08:29:07.277Z,14.18
2023-01-20T08:31:36.288Z,17.73
2023-01-20T08:34:05.151Z,14.48
2023-01-20T08:36:35.829Z,16.45
2023-01-20T08:39:08.716Z,17.67
2023-01-20T08:41:39.034Z,14.63
2023-01-20T08:44:08.975Z,17.40
2023-01-20T08:46:40.495Z,16.08
2023-01-20T08:49:11.087Z,19.73
2023-01-20T08:51:39.854Z,15.13
2023-01-20T08:54:09.568Z,17.70
2023-01-20T08:56:37.957Z,17.08
2023-01-20T08:59:06.294Z,15.98
2023-01-20T09:01:38.008Z,16.50
2023-01-20T09:04:07.830Z,16.67
2023-01-20T09:06:41.800Z,18.27
2023-01-20T09:09:12.550Z,17.38
2023-01-20T09:11:43.275Z,17.08
2023-01-20T09:14:11.660Z,13.05
2023-01-20T09:16:39.997Z,16.88
2023-01-20T09:19:08.230Z,18.98
2023-01-20T09:21:36.451Z,15.18
2023-01-20T09:24:05.133Z,16.42
2023-01-20T09:26:39.471Z,17.58
2023-01-20T09:29:11.019Z,18.13
2023-01-20T09:31:40.579Z,16.92
2023-01-20T09:34:08.943Z,14.68
2023-01-20T09:36:37.218Z,16.13
2023-01-20T09:39:23.201Z,17.02
2023-01-20T09:42:10.616Z,17.10
2023-01-20T09:44:50.071Z,16.25
2023-01-20T09:47:31.210Z,16.88
2023-01-20T09:50:46.924Z,13.45
2023-01-20T09:53:40.754Z,17.08
2023-01-20T09:56:13.730Z,17.67
2023-01-20T09:58:49.841Z,17.55
2023-01-20T10:01:24.561Z,15.98
2023-01-20T10:04:01.154Z,13.68
2023-01-20T10:06:35.316Z,12.90
2023-01-20T10:09:06.695Z,14.38
2023-01-20T10:11:41.558Z,14.82
2023-01-20T10:14:16.987Z,14.32
2023-01-20T10:19:27.234Z,12.88
2023-01-20T10:22:04.379Z,14.18
2023-01-20T10:24:36.694Z,10.23
2023-01-20T10:27:06.328Z,6.90
2023-01-20T10:29:37.892Z,11.77
2023-01-20T10:32:12.779Z,14.10
2023-01-20T10:34:46.676Z,13.52
2023-01-20T10:37:16.620Z,12.57
2023-01-20T10:39:50.290Z,9.93
2023-01-20T10:42:20.075Z,10.98
2023-01-20T10:44:52.177Z,10.63
2023-01-20T10:47:29.724Z,10.93
2023-01-20T10:50:28.343Z,9.65
2023-01-20T10:53:13.502Z,11.13
2023-01-20T10:56:03.280Z,12.52
2023-01-20T10:58:35.087Z,10.65
2023-01-20T11:01:09.529Z,10.10
2023-01-20T11:03:42.125Z,11.43
2023-01-20T11:06:19.541Z,9.55
2023-01-20T11:08:48.427Z,11.48
2023-01-20T11:11:19.570Z,11.27
2023-01-20T11:13:48.166Z,9.98
2023-01-20T11:16:23.127Z,13.68
2023-01-20T11:19:00.458Z,11.85
2023-01-20T11:21:30.846Z,10.57
2023-01-20T11:24:00.990Z,12.05
2023-01-20T11:26:31.826Z,10.80
2023-01-20T11:29:01.724Z,9.02
2023-01-20T11:31:41.419Z,11.48
2023-01-20T11:34:22.912Z,9.68
2023-01-20T11:36:51.673Z,8.95
2023-01-20T11:39:28.387Z,8.57
2023-01-20T11:42:15.433Z,6.78
2023-01-20T11:44:44.568Z,5.95
2023-01-20T11:47:28.400Z,7.50
2023-01-20T11:50:20.720Z,5.53
2023-01-20T11:52:49.127Z,7.05
2023-01-20T11:55:20.324Z,5.55
2023-01-20T11:57:52.861Z,7.07
2023-01-20T12:00:33.419Z,6.22
2023-01-20T12:03:12.704Z,6.90
2023-01-20T12:05:45.099Z,6.30
2023-01-20T12:08:20.288Z,5.45
2023-01-20T12:10:50.975Z,6.18
2023-01-20T12:13:23.616Z,5.75
2023-01-20T12:15:55.542Z,8.00
2023-01-20T12:18:35.422Z,6.60
2023-01-20T12:21:09.367Z,6.18
2023-01-20T12:23:45.768Z,6.72
2023-01-20T12:26:16.179Z,6.30
2023-01-20T12:28:52.901Z,6.50
2023-01-20T12:31:24.421Z,5.45
2023-01-20T12:33:59.131Z,5.05
2023-01-20T12:37:04.977Z,5.50
2023-01-20T12:39:49.128Z,4.70
2023-01-20T12:42:53.434Z,5.00
2023-01-20T12:45:38.584Z,6.35
2023-01-20T12:48:21.676Z,6.47
2023-01-20T12:51:12.723Z,5.20
2023-01-20T12:53:59.800Z,4.72
2023-01-20T12:56:41.144Z,4.75
2023-01-20T12:59:20.631Z,6.50
2023-01-20T13:02:01.878Z,5.93
2023-01-20T13:05:03.144Z,6.38
2023-01-20T13:07:44.174Z,9.30
2023-01-20T13:10:23.284Z,6.82
2023-01-20T13:13:01.884Z,9.77
2023-01-20T13:15:34.207Z,8.43
2023-01-20T13:18:16.674Z,8.00
2023-01-20T13:20:46.766Z,7.25
2023-01-20T13:23:19.534Z,6.70
2023-01-20T13:25:49.066Z,7.15
2023-01-20T13:28:19.224Z,7.28
2023-01-20T13:30:51.614Z,9.50
2023-01-20T13:33:32.084Z,10.60
2023-01-20T13:36:01.448Z,10.57
2023-01-20T13:38:35.303Z,10.18
2023-01-20T13:41:06.186Z,10.05
2023-01-20T13:43:48.193Z,9.45
2023-01-20T13:46:39.394Z,21.55
2023-01-20T13:49:26.010Z,12.32
2023-01-20T13:51:54.282Z,8.90
2023-01-20T13:54:44.358Z,8.77
2023-01-20T13:57:37.157Z,8.30
2023-01-20T14:00:19.971Z,8.38
2023-01-20T14:02:50.883Z,7.95
2023-01-20T14:05:25.187Z,8.55
2023-01-20T14:07:53.920Z,6.95
2023-01-20T14:10:24.056Z,6.20
2023-01-20T14:12:52.415Z,10.30
2023-01-20T14:15:37.915Z,9.77
2023-01-20T14:18:12.820Z,9.93
2023-01-20T14:20:42.096Z,8.32
2023-01-20T14:23:33.015Z,6.22
2023-01-20T14:26:05.629Z,5.82
2023-01-20T14:28:35.459Z,6.07
2023-01-20T14:31:20.857Z,6.80
2023-01-20T14:33:59.098Z,7.20
2023-01-20T14:36:31.693Z,6.68
2023-01-20T14:39:04.009Z,7.28
2023-01-20T14:41:46.806Z,8.32
2023-01-20T14:44:19.885Z,11.70
2023-01-20T14:46:50.115Z,3.75
2023-01-20T14:49:20.655Z,5.55
2023-01-20T14:51:51.103Z,8.27
2023-01-20T14:54:36.512Z,6.35
2023-01-20T14:57:22.426Z,7.20
2023-01-20T15:00:12.351Z,5.78
2023-01-20T15:02:42.165Z,6.45
2023-01-20T15:05:29.071Z,7.10
2023-01-20T15:08:16.338Z,6.20
2023-01-20T15:10:44.572Z,6.53
2023-01-20T15:13:25.480Z,6.05
2023-01-20T15:16:06.874Z,6.15
2023-01-20T15:18:35.489Z,5.63
2023-01-20T15:21:20.318Z,7.07
2023-01-20T15:23:52.646Z,7.18
2023-01-20T15:26:27.877Z,9.20
2023-01-20T15:28:58.367Z,4.85
2023-01-20T15:31:27.125Z,6.05
2023-01-20T15:33:56.168Z,6.05
2023-01-20T15:36:28.857Z,4.28
2023-01-20T15:38:57.475Z,5.25
2023-01-20T15:41:25.807Z,5.68
2023-01-20T15:43:54.091Z,5.45
2023-01-20T15:46:23.920Z,4.28
2023-01-20T15:48:52.168Z,5.10
2023-01-20T15:51:21.800Z,4.57
2023-01-20T15:53:50.165Z,3.30
2023-01-20T15:56:21.468Z,3.50
2023-01-20T15:58:50.748Z,4.47
2023-01-20T16:01:23.800Z,4.53
2023-01-20T16:03:55.068Z,3.90
2023-01-20T16:06:29.049Z,3.80
2023-01-20T16:08:57.612Z,4.85
2023-01-20T16:11:26.113Z,4.22
2023-01-20T16:13:54.328Z,3.58
2023-01-20T16:16:26.803Z,3.40
2023-01-20T16:18:58.412Z,3.67
2023-01-20T16:21:27.151Z,3.65
2023-01-20T16:23:55.457Z,3.25
2023-01-20T16:26:26.054Z,4.47
2023-01-20T16:28:56.856Z,3.92
2023-01-20T16:31:26.478Z,6.18
2023-01-20T16:33:55.333Z,5.10
2023-01-20T16:36:25.379Z,5.00
2023-01-20T16:38:54.444Z,5.70
2023-01-20T16:41:24.636Z,6.18
2023-01-20T16:43:54.407Z,4.68
2023-01-20T16:46:24.237Z,4.25
2023-01-20T16:48:53.501Z,3.75
2023-01-20T16:51:26.381Z,3.80
2023-01-20T16:53:55.023Z,4.30
2023-01-20T16:56:24.732Z,5.18
2023-01-20T16:58:54.461Z,4.97
2023-01-20T17:01:24.844Z,5.32
2023-01-20T17:03:54.794Z,4.18
2023-01-20T17:06:26.536Z,4.32
2023-01-20T17:08:56.413Z,4.65
2023-01-20T17:11:26.062Z,4.93
2023-01-20T17:13:55.243Z,4.00
2023-01-20T17:16:26.088Z,4.03
2023-01-20T17:18:57.847Z,4.18
2023-01-20T17:21:29.179Z,5.75
2023-01-20T17:23:59.332Z,5.78
2023-01-20T17:26:28.283Z,5.18
2023-01-20T17:28:57.620Z,5.75
2023-01-20T17:31:26.834Z,6.97
2023-01-20T17:33:55.302Z,8.15
2023-01-20T17:36:23.766Z,6.60
2023-01-20T17:38:53.318Z,4.97
2023-01-20T17:41:21.835Z,6.03
2023-01-20T17:43:50.031Z,6.22
2023-01-20T17:46:20.947Z,7.78
2023-01-20T17:48:49.891Z,6.53
2023-01-20T17:51:20.579Z,6.15
2023-01-20T17:53:49.001Z,7.88
2023-01-20T17:56:19.916Z,6.82
2023-01-20T17:58:48.728Z,7.68
2023-01-20T18:01:19.485Z,4.88
2023-01-20T18:03:49.144Z,6.70
2023-01-20T18:06:19.494Z,9.55
2023-01-20T18:08:52.796Z,10.35
2023-01-20T18:11:23.447Z,12.80
2023-01-20T18:13:53.612Z,11.30
2023-01-20T18:16:23.094Z,8.60
2023-01-20T18:18:51.852Z,8.18
2023-01-20T18:21:22.179Z,8.93
2023-01-20T18:23:51.445Z,8.50
2023-01-20T18:26:23.532Z,8.07
2023-01-20T18:28:55.404Z,6.88
2023-01-20T18:31:25.249Z,7.90
2023-01-20T18:33:55.804Z,7.85
2023-01-20T18:36:26.005Z,11.27
2023-01-20T18:38:55.372Z,8.20
2023-01-20T18:41:26.011Z,8.07
2023-01-20T18:43:54.267Z,12.00
2023-01-20T18:46:22.567Z,11.95
2023-01-20T18:48:52.443Z,12.13
2023-01-20T18:51:22.479Z,11.18
2023-01-20T18:53:56.274Z,10.20
2023-01-20T18:56:27.204Z,12.98
2023-01-20T18:58:56.135Z,11.73
2023-01-20T19:01:26.801Z,14.73
2023-01-20T19:03:55.673Z,15.32
2023-01-20T19:06:25.720Z,14.02
2023-01-20T19:08:54.586Z,14.23
2023-01-20T19:11:24.635Z,13.13
2023-01-20T19:13:54.584Z,9.90
2023-01-20T19:16:24.546Z,12.55
2023-01-20T19:18:54.365Z,12.55
2023-01-20T19:21:23.654Z,3.67
2023-01-20T19:23:52.768Z,12.00
2023-01-20T19:26:22.143Z,11.20
2023-01-20T19:29:00.028Z,13.70
2023-01-20T19:31:28.425Z,14.43
2023-01-20T19:33:56.745Z,14.43
2023-01-20T19:36:25.203Z,17.23
2023-01-20T19:38:53.438Z,15.55
2023-01-20T19:41:23.578Z,18.25
2023-01-20T19:43:57.166Z,15.80
2023-01-20T19:46:29.421Z,16.23
2023-01-20T19:48:58.913Z,13.65
2023-01-20T19:51:28.039Z,16.15
2023-01-20T19:53:58.666Z,12.07
2023-01-20T19:56:28.642Z,14.80
2023-01-20T19:58:57.545Z,17.58
2023-01-20T20:01:31.263Z,16.35
2023-01-20T20:04:00.923Z,13.80
2023-01-20T20:06:31.272Z,15.90
2023-01-20T20:09:01.601Z,16.40
2023-01-20T20:11:30.671Z,12.80
2023-01-20T20:14:00.328Z,13.73
2023-01-20T20:16:31.984Z,15.93
2023-01-20T20:19:00.975Z,20.80
2023-01-20T20:21:29.462Z,13.20
2023-01-20T20:23:59.588Z,21.52
2023-01-20T20:26:29.741Z,11.98
2023-01-20T20:29:00.885Z,12.27
2023-01-20T20:31:31.060Z,14.65
2023-01-20T20:34:00.475Z,15.38
2023-01-20T20:36:33.739Z,14.70
2023-01-20T20:39:03.448Z,11.40
2023-01-20T20:41:34.434Z,12.57
2023-01-20T20:44:03.400Z,12.13
2023-01-20T20:46:33.263Z,15.30
2023-01-20T20:49:03.196Z,13.82
2023-01-20T20:51:33.073Z,13.30
2023-01-20T20:54:03.080Z,16.98
2023-01-20T20:56:32.600Z,13.10
2023-01-20T20:59:03.414Z,8.82
2023-01-20T21:01:34.816Z,7.32
2023-01-20T21:04:03.623Z,9.23
2023-01-20T21:06:32.992Z,14.05
2023-01-20T21:09:01.670Z,14.32
2023-01-20T21:11:30.572Z,11.43
2023-01-20T21:13:59.318Z,11.13
2023-01-20T21:16:28.235Z,9.02
2023-01-20T21:18:59.487Z,13.43
2023-01-20T21:21:29.191Z,12.77
2023-01-20T21:23:59.154Z,10.65
2023-01-20T21:26:30.687Z,13.63
2023-01-20T21:29:01.985Z,14.07
2023-01-20T21:31:31.572Z,14.32
2023-01-20T21:34:02.288Z,10.77
2023-01-20T21:36:32.397Z,15.45
2023-01-20T21:39:01.299Z,13.52
2023-01-20T21:41:29.427Z,13.10
2023-01-20T21:44:15.176Z,11.77
2023-01-20T21:46:43.507Z,13.70
2023-01-20T21:49:30.587Z,14.02
2023-01-20T21:52:16.486Z,14.82
2023-01-20T21:57:14.955Z,14.77
2023-01-20T21:59:43.718Z,12.90
2023-01-20T22:02:14.482Z,19.38
2023-01-20T22:04:46.237Z,18.20
2023-01-20T22:07:15.260Z,16.13
2023-01-20T22:09:44.945Z,13.77
2023-01-20T22:12:13.771Z,14.55
2023-01-20T22:14:42.947Z,19.90
2023-01-20T22:17:13.045Z,17.00
2023-01-20T22:19:41.830Z,11.23
2023-01-20T22:22:14.780Z,15.52
2023-01-20T22:24:43.304Z,16.58
2023-01-20T22:27:11.624Z,13.82
2023-01-20T22:29:39.865Z,15.70
2023-01-20T22:32:08.553Z,17.17
2023-01-20T22:34:36.795Z,14.18
2023-01-20T22:37:05.511Z,13.20
2023-01-20T22:39:35.133Z,12.85
2023-01-20T22:42:03.424Z,13.55
2023-01-20T22:44:31.731Z,12.38
2023-01-20T22:47:00.112Z,11.50
2023-01-20T22:49:29.980Z,16.50
2023-01-20T22:51:58.207Z,15.55
2023-01-20T22:54:26.666Z,15.50
2023-01-20T22:56:56.317Z,13.45
2023-01-20T22:59:24.516Z,15.85
2023-01-20T23:01:52.789Z,16.17
2023-01-20T23:04:21.096Z,13.77
2023-01-20T23:06:49.251Z,13.88
2023-01-20T23:09:17.502Z,16.33
2023-01-20T23:11:46.440Z,15.82
2023-01-20T23:14:16.189Z,16.10
2023-01-20T23:16:45.255Z,17.17
2023-01-20T23:19:13.680Z,12.50
2023-01-20T23:21:41.966Z,11.05
2023-01-20T23:24:10.468Z,11.93
2023-01-20T23:26:39.306Z,13.52
2023-01-20T23:29:07.455Z,11.32
2023-01-20T23:31:37.129Z,13.05
2023-01-20T23:34:05.828Z,11.27
2023-01-20T23:36:34.157Z,12.68
2023-01-20T23:39:02.358Z,12.73
2023-01-20T23:41:31.040Z,12.30
2023-01-20T23:43:59.635Z,14.80
2023-01-20T23:46:27.871Z,12.18
2023-01-20T23:48:57.514Z,13.35
2023-01-20T23:51:25.747Z,15.95
2023-01-20T23:53:54.063Z,13.38
2023-01-20T23:56:23.830Z,14.30
2023-01-20T23:58:52.696Z,12.43
